sensor_id;sensor_type;location;lat;lon;timestamp;P1;P2;P0
76238;PMS7003;65043;48.392;-4.472;2022-12-17T00:00:24;15.75;13.75;8.00
76238;PMS7003;65043;48.392;-4.472;2022-12-17T00:03:08;14.50;12.75;9.25
76238;PMS7003;65043;48.392;-4.472;2022-12-17T00:05:53;14.00;12.25;8.75
76238;PMS7003;65043;48.392;-4.472;2022-12-17T00:08:37;19.75;15.25;9.25
76238;PMS7003;65043;48.392;-4.472;2022-12-17T00:11:21;17.75;12.75;10.00
76238;PMS7003;65043;48.392;-4.472;2022-12-17T00:14:05;12.50;12.50;7.75
76238;PMS7003;65043;48.392;-4.472;2022-12-17T00:16:49;16.75;14.25;8.00
76238;PMS7003;65043;48.392;-4.472;2022-12-17T00:19:33;17.00;13.00;7.50
76238;PMS7003;65043;48.392;-4.472;2022-12-17T00:22:17;16.75;11.25;7.25
76238;PMS7003;65043;48.392;-4.472;2022-12-17T00:25:01;15.00;8.00;5.75
76238;PMS7003;65043;48.392;-4.472;2022-12-17T00:27:45;13.25;12.75;9.00
76238;PMS7003;65043;48.392;-4.472;2022-12-17T00:30:28;11.25;11.00;7.75
76238;PMS7003;65043;48.392;-4.472;2022-12-17T00:33:12;14.00;12.25;8.25
76238;PMS7003;65043;48.392;-4.472;2022-12-17T00:35:56;14.25;11.75;8.75
76238;PMS7003;65043;48.392;-4.472;2022-12-17T00:38:40;12.00;11.00;8.00
76238;PMS7003;65043;48.392;-4.472;2022-12-17T00:41:24;12.75;12.00;7.00
76238;PMS7003;65043;48.392;-4.472;2022-12-17T00:44:08;13.00;12.25;8.00
76238;PMS7003;65043;48.392;-4.472;2022-12-17T00:46:52;12.75;10.00;8.00
76238;PMS7003;65043;48.392;-4.472;2022-12-17T00:49:36;14.25;12.75;9.75
76238;PMS7003;65043;48.392;-4.472;2022-12-17T00:52:20;15.00;12.75;8.50
76238;PMS7003;65043;48.392;-4.472;2022-12-17T00:55:03;18.00;12.50;8.50
76238;PMS7003;65043;48.392;-4.472;2022-12-17T00:57:52;15.25;11.50;7.50
76238;PMS7003;65043;48.392;-4.472;2022-12-17T01:00:44;8.00;7.00;7.00
76238;PMS7003;65043;48.392;-4.472;2022-12-17T01:03:28;11.75;11.50;8.00
76238;PMS7003;65043;48.392;-4.472;2022-12-17T01:06:12;12.00;11.50;7.25
76238;PMS7003;65043;48.392;-4.472;2022-12-17T01:08:57;15.50;12.00;8.00
76238;PMS7003;65043;48.392;-4.472;2022-12-17T01:11:41;10.75;10.50;6.50
76238;PMS7003;65043;48.392;-4.472;2022-12-17T01:14:25;9.75;9.75;7.00
76238;PMS7003;65043;48.392;-4.472;2022-12-17T01:17:10;11.75;10.00;7.00
76238;PMS7003;65043;48.392;-4.472;2022-12-17T01:19:54;11.75;9.00;7.00
76238;PMS7003;65043;48.392;-4.472;2022-12-17T01:22:38;11.75;10.75;7.25
76238;PMS7003;65043;48.392;-4.472;2022-12-17T01:25:22;10.25;10.25;7.00
76238;PMS7003;65043;48.392;-4.472;2022-12-17T01:28:06;11.25;7.75;6.00
76238;PMS7003;65043;48.392;-4.472;2022-12-17T01:30:50;12.75;9.00;5.50
76238;PMS7003;65043;48.392;-4.472;2022-12-17T01:33:34;11.75;11.00;8.25
76238;PMS7003;65043;48.392;-4.472;2022-12-17T01:36:17;12.00;10.25;7.00
76238;PMS7003;65043;48.392;-4.472;2022-12-17T01:39:01;6.25;3.75;2.00
76238;PMS7003;65043;48.392;-4.472;2022-12-17T01:41:45;13.25;11.50;8.00
76238;PMS7003;65043;48.392;-4.472;2022-12-17T01:50:23;17.75;11.75;8.00
76238;PMS7003;65043;48.392;-4.472;2022-12-17T01:53:11;10.25;10.25;7.00
76238;PMS7003;65043;48.392;-4.472;2022-12-17T01:55:55;12.50;12.00;8.00
76238;PMS7003;65043;48.392;-4.472;2022-12-17T01:58:39;11.00;10.75;7.00
76238;PMS7003;65043;48.392;-4.472;2022-12-17T02:01:24;10.25;7.50;5.75
76238;PMS7003;65043;48.392;-4.472;2022-12-17T02:04:09;11.50;11.50;8.00
76238;PMS7003;65043;48.392;-4.472;2022-12-17T02:13:04;12.75;10.25;7.00
76238;PMS7003;65043;48.392;-4.472;2022-12-17T02:16:08;15.50;12.75;8.00
76238;PMS7003;65043;48.392;-4.472;2022-12-17T02:19:03;10.75;10.75;7.25
76238;PMS7003;65043;48.392;-4.472;2022-12-17T02:22:03;11.50;10.50;8.00
76238;PMS7003;65043;48.392;-4.472;2022-12-17T02:25:05;11.25;10.50;8.25
76238;PMS7003;65043;48.392;-4.472;2022-12-17T02:28:00;18.75;12.00;8.00
76238;PMS7003;65043;48.392;-4.472;2022-12-17T02:30:44;11.75;11.50;8.00
76238;PMS7003;65043;48.392;-4.472;2022-12-17T02:33:30;15.00;14.00;9.00
76238;PMS7003;65043;48.392;-4.472;2022-12-17T02:36:14;12.00;12.00;8.25
76238;PMS7003;65043;48.392;-4.472;2022-12-17T02:38:58;11.50;11.50;7.50
76238;PMS7003;65043;48.392;-4.472;2022-12-17T02:41:43;21.00;13.50;10.75
76238;PMS7003;65043;48.392;-4.472;2022-12-17T02:44:32;15.50;14.00;10.00
76238;PMS7003;65043;48.392;-4.472;2022-12-17T02:47:18;17.25;11.75;8.25
76238;PMS7003;65043;48.392;-4.472;2022-12-17T02:50:05;12.75;11.75;9.75
76238;PMS7003;65043;48.392;-4.472;2022-12-17T02:52:50;15.50;14.75;11.00
76238;PMS7003;65043;48.392;-4.472;2022-12-17T02:55:34;20.50;14.75;9.50
76238;PMS7003;65043;48.392;-4.472;2022-12-17T02:58:19;11.50;11.00;8.25
76238;PMS7003;65043;48.392;-4.472;2022-12-17T03:01:03;12.50;11.00;8.25
76238;PMS7003;65043;48.392;-4.472;2022-12-17T03:03:47;12.50;12.00;8.25
76238;PMS7003;65043;48.392;-4.472;2022-12-17T03:06:31;12.50;10.75;7.50
76238;PMS7003;65043;48.392;-4.472;2022-12-17T03:09:15;11.00;10.00;7.00
76238;PMS7003;65043;48.392;-4.472;2022-12-17T03:11:59;15.75;13.00;9.50
76238;PMS7003;65043;48.392;-4.472;2022-12-17T03:14:43;11.50;11.00;8.50
76238;PMS7003;65043;48.392;-4.472;2022-12-17T03:17:28;15.00;11.50;8.25
76238;PMS7003;65043;48.392;-4.472;2022-12-17T03:20:12;14.00;11.50;8.25
76238;PMS7003;65043;48.392;-4.472;2022-12-17T03:23:03;12.75;11.00;8.25
76238;PMS7003;65043;48.392;-4.472;2022-12-17T03:25:48;15.25;12.50;8.00
76238;PMS7003;65043;48.392;-4.472;2022-12-17T03:28:32;12.50;12.00;9.00
76238;PMS7003;65043;48.392;-4.472;2022-12-17T03:31:15;12.50;10.75;8.25
76238;PMS7003;65043;48.392;-4.472;2022-12-17T03:33:59;10.75;7.25;5.75
76238;PMS7003;65043;48.392;-4.472;2022-12-17T03:36:43;13.75;12.00;10.00
76238;PMS7003;65043;48.392;-4.472;2022-12-17T03:39:27;15.50;12.25;9.50
76238;PMS7003;65043;48.392;-4.472;2022-12-17T03:42:11;15.25;13.50;10.00
76238;PMS7003;65043;48.392;-4.472;2022-12-17T03:44:55;19.50;16.00;9.25
76238;PMS7003;65043;48.392;-4.472;2022-12-17T03:47:39;18.00;13.25;8.25
76238;PMS7003;65043;48.392;-4.472;2022-12-17T03:50:23;17.00;14.50;10.00
76238;PMS7003;65043;48.392;-4.472;2022-12-17T03:53:07;17.00;13.75;10.75
76238;PMS7003;65043;48.392;-4.472;2022-12-17T03:55:51;17.00;14.75;9.75
76238;PMS7003;65043;48.392;-4.472;2022-12-17T03:58:35;15.50;12.00;8.25
76238;PMS7003;65043;48.392;-4.472;2022-12-17T04:01:19;16.25;14.50;10.75
76238;PMS7003;65043;48.392;-4.472;2022-12-17T04:04:03;15.00;13.50;9.75
76238;PMS7003;65043;48.392;-4.472;2022-12-17T04:06:47;15.75;12.00;8.25
76238;PMS7003;65043;48.392;-4.472;2022-12-17T04:09:30;16.50;15.00;10.00
76238;PMS7003;65043;48.392;-4.472;2022-12-17T04:12:14;16.50;15.00;10.00
76238;PMS7003;65043;48.392;-4.472;2022-12-17T04:14:58;15.75;12.00;10.00
76238;PMS7003;65043;48.392;-4.472;2022-12-17T04:17:42;15.25;13.00;10.25
76238;PMS7003;65043;48.392;-4.472;2022-12-17T04:20:26;14.25;13.25;10.00
76238;PMS7003;65043;48.392;-4.472;2022-12-17T04:23:10;15.50;12.00;10.00
76238;PMS7003;65043;48.392;-4.472;2022-12-17T04:25:54;14.50;14.00;10.00
76238;PMS7003;65043;48.392;-4.472;2022-12-17T04:28:38;14.25;12.00;11.00
76238;PMS7003;65043;48.392;-4.472;2022-12-17T04:31:22;14.50;14.50;9.75
76238;PMS7003;65043;48.392;-4.472;2022-12-17T04:34:23;16.25;12.50;8.25
76238;PMS7003;65043;48.392;-4.472;2022-12-17T04:37:07;13.50;13.50;9.00
76238;PMS7003;65043;48.392;-4.472;2022-12-17T04:39:51;13.25;12.75;10.50
76238;PMS7003;65043;48.392;-4.472;2022-12-17T04:42:35;16.00;13.75;10.50
76238;PMS7003;65043;48.392;-4.472;2022-12-17T04:45:19;18.75;13.75;9.75
76238;PMS7003;65043;48.392;-4.472;2022-12-17T04:48:03;15.75;15.00;10.00
76238;PMS7003;65043;48.392;-4.472;2022-12-17T04:50:49;13.25;12.00;8.25
76238;PMS7003;65043;48.392;-4.472;2022-12-17T04:53:33;12.00;12.00;8.75
76238;PMS7003;65043;48.392;-4.472;2022-12-17T04:56:17;12.25;11.50;9.00
76238;PMS7003;65043;48.392;-4.472;2022-12-17T04:59:02;16.00;14.00;10.75
76238;PMS7003;65043;48.392;-4.472;2022-12-17T05:01:45;16.00;14.25;10.00
76238;PMS7003;65043;48.392;-4.472;2022-12-17T05:04:29;15.25;13.50;9.75
76238;PMS7003;65043;48.392;-4.472;2022-12-17T05:07:13;13.75;13.75;9.75
76238;PMS7003;65043;48.392;-4.472;2022-12-17T05:09:57;13.75;11.25;10.00
76238;PMS7003;65043;48.392;-4.472;2022-12-17T05:12:41;15.50;15.25;10.25
76238;PMS7003;65043;48.392;-4.472;2022-12-17T05:15:25;18.75;14.25;8.25
76238;PMS7003;65043;48.392;-4.472;2022-12-17T05:18:12;14.25;13.75;9.50
76238;PMS7003;65043;48.392;-4.472;2022-12-17T05:20:56;13.75;12.00;9.25
76238;PMS7003;65043;48.392;-4.472;2022-12-17T05:23:40;10.50;10.00;6.00
76238;PMS7003;65043;48.392;-4.472;2022-12-17T05:26:25;14.50;10.75;7.00
76238;PMS7003;65043;48.392;-4.472;2022-12-17T05:29:10;11.50;11.50;7.50
76238;PMS7003;65043;48.392;-4.472;2022-12-17T05:31:55;14.00;11.50;10.00
76238;PMS7003;65043;48.392;-4.472;2022-12-17T05:34:40;12.25;12.00;7.75
76238;PMS7003;65043;48.392;-4.472;2022-12-17T05:37:23;12.75;11.00;10.00
76238;PMS7003;65043;48.392;-4.472;2022-12-17T05:40:08;19.25;14.00;10.00
76238;PMS7003;65043;48.392;-4.472;2022-12-17T05:43:05;11.00;11.00;9.25
76238;PMS7003;65043;48.392;-4.472;2022-12-17T05:45:49;12.25;11.25;7.00
76238;PMS7003;65043;48.392;-4.472;2022-12-17T05:48:33;9.50;9.50;7.00
76238;PMS7003;65043;48.392;-4.472;2022-12-17T05:51:18;14.75;14.00;8.25
76238;PMS7003;65043;48.392;-4.472;2022-12-17T05:54:03;14.00;11.00;7.00
76238;PMS7003;65043;48.392;-4.472;2022-12-17T05:56:47;14.25;12.00;9.50
76238;PMS7003;65043;48.392;-4.472;2022-12-17T05:59:31;11.50;11.00;7.50
76238;PMS7003;65043;48.392;-4.472;2022-12-17T06:02:15;15.00;12.25;9.00
76238;PMS7003;65043;48.392;-4.472;2022-12-17T06:04:59;14.75;11.00;8.75
76238;PMS7003;65043;48.392;-4.472;2022-12-17T06:07:43;15.50;12.50;9.75
76238;PMS7003;65043;48.392;-4.472;2022-12-17T06:10:27;14.00;12.25;9.50
76238;PMS7003;65043;48.392;-4.472;2022-12-17T06:13:11;7.00;6.75;6.00
76238;PMS7003;65043;48.392;-4.472;2022-12-17T06:15:55;9.00;8.25;6.25
76238;PMS7003;65043;48.392;-4.472;2022-12-17T06:18:39;12.25;10.75;8.25
76238;PMS7003;65043;48.392;-4.472;2022-12-17T06:21:23;13.00;8.25;3.00
76238;PMS7003;65043;48.392;-4.472;2022-12-17T06:24:07;9.00;9.00;6.25
76238;PMS7003;65043;48.392;-4.472;2022-12-17T06:26:51;13.25;12.00;7.50
76238;PMS7003;65043;48.392;-4.472;2022-12-17T06:29:35;11.75;11.25;8.75
76238;PMS7003;65043;48.392;-4.472;2022-12-17T06:32:19;14.75;13.75;9.50
76238;PMS7003;65043;48.392;-4.472;2022-12-17T06:35:03;12.00;10.75;9.00
76238;PMS7003;65043;48.392;-4.472;2022-12-17T06:37:56;14.00;14.00;9.75
76238;PMS7003;65043;48.392;-4.472;2022-12-17T06:40:40;13.50;12.25;9.00
76238;PMS7003;65043;48.392;-4.472;2022-12-17T06:43:24;17.50;13.50;9.00
76238;PMS7003;65043;48.392;-4.472;2022-12-17T06:46:09;17.75;14.25;10.00
76238;PMS7003;65043;48.392;-4.472;2022-12-17T06:49:00;17.25;16.50;10.75
76238;PMS7003;65043;48.392;-4.472;2022-12-17T06:51:44;14.50;14.00;9.00
76238;PMS7003;65043;48.392;-4.472;2022-12-17T06:54:28;13.50;12.50;9.75
76238;PMS7003;65043;48.392;-4.472;2022-12-17T06:57:12;15.50;11.00;7.00
76238;PMS7003;65043;48.392;-4.472;2022-12-17T06:59:56;14.75;10.50;9.00
76238;PMS7003;65043;48.392;-4.472;2022-12-17T07:02:39;14.25;11.50;9.25
76238;PMS7003;65043;48.392;-4.472;2022-12-17T07:05:23;15.75;10.50;7.00
76238;PMS7003;65043;48.392;-4.472;2022-12-17T07:08:07;16.00;14.00;10.00
76238;PMS7003;65043;48.392;-4.472;2022-12-17T07:10:51;14.75;10.75;7.00
76238;PMS7003;65043;48.392;-4.472;2022-12-17T07:13:35;14.00;14.00;9.00
76238;PMS7003;65043;48.392;-4.472;2022-12-17T07:16:19;18.50;14.50;9.00
76238;PMS7003;65043;48.392;-4.472;2022-12-17T07:19:03;15.00;11.00;8.75
76238;PMS7003;65043;48.392;-4.472;2022-12-17T07:21:47;16.75;13.50;9.00
76238;PMS7003;65043;48.392;-4.472;2022-12-17T07:24:31;15.75;11.25;9.00
76238;PMS7003;65043;48.392;-4.472;2022-12-17T07:27:15;15.75;15.75;10.00
76238;PMS7003;65043;48.392;-4.472;2022-12-17T07:29:59;10.00;9.00;5.00
76238;PMS7003;65043;48.392;-4.472;2022-12-17T07:32:43;13.25;11.00;7.00
76238;PMS7003;65043;48.392;-4.472;2022-12-17T07:35:27;11.75;10.25;6.50
76238;PMS7003;65043;48.392;-4.472;2022-12-17T07:38:10;10.50;10.25;7.00
76238;PMS7003;65043;48.392;-4.472;2022-12-17T07:40:54;14.00;11.00;8.00
76238;PMS7003;65043;48.392;-4.472;2022-12-17T07:43:39;11.00;10.25;6.00
76238;PMS7003;65043;48.392;-4.472;2022-12-17T07:46:23;10.50;9.00;6.25
76238;PMS7003;65043;48.392;-4.472;2022-12-17T07:49:07;8.75;8.25;7.00
76238;PMS7003;65043;48.392;-4.472;2022-12-17T07:51:51;16.00;11.00;8.50
76238;PMS7003;65043;48.392;-4.472;2022-12-17T07:54:35;10.50;6.75;5.00
76238;PMS7003;65043;48.392;-4.472;2022-12-17T07:57:18;10.75;7.00;5.50
76238;PMS7003;65043;48.392;-4.472;2022-12-17T08:00:03;10.25;7.75;5.75
76238;PMS7003;65043;48.392;-4.472;2022-12-17T08:02:47;9.00;7.50;6.00
76238;PMS7003;65043;48.392;-4.472;2022-12-17T08:05:31;9.50;6.25;6.00
76238;PMS7003;65043;48.392;-4.472;2022-12-17T08:08:15;8.75;7.00;5.00
76238;PMS7003;65043;48.392;-4.472;2022-12-17T08:10:58;8.25;6.75;5.75
76238;PMS7003;65043;48.392;-4.472;2022-12-17T08:13:42;9.50;9.00;6.00
76238;PMS7003;65043;48.392;-4.472;2022-12-17T08:16:26;9.50;8.50;4.50
76238;PMS7003;65043;48.392;-4.472;2022-12-17T08:19:10;6.75;6.75;6.00
76238;PMS7003;65043;48.392;-4.472;2022-12-17T08:21:54;12.00;10.75;6.75
76238;PMS7003;65043;48.392;-4.472;2022-12-17T08:24:39;11.00;10.50;6.50
76238;PMS7003;65043;48.392;-4.472;2022-12-17T08:27:23;8.50;7.50;6.00
76238;PMS7003;65043;48.392;-4.472;2022-12-17T08:30:07;7.50;6.00;4.50
76238;PMS7003;65043;48.392;-4.472;2022-12-17T08:32:51;13.00;9.75;6.00
76238;PMS7003;65043;48.392;-4.472;2022-12-17T08:35:35;11.00;9.50;5.50
76238;PMS7003;65043;48.392;-4.472;2022-12-17T08:38:18;9.50;7.00;6.00
76238;PMS7003;65043;48.392;-4.472;2022-12-17T08:41:02;11.00;11.00;6.00
76238;PMS7003;65043;48.392;-4.472;2022-12-17T08:43:46;15.50;9.75;6.50
76238;PMS7003;65043;48.392;-4.472;2022-12-17T08:46:30;13.25;11.00;8.25
76238;PMS7003;65043;48.392;-4.472;2022-12-17T08:49:17;10.50;10.00;7.00
76238;PMS7003;65043;48.392;-4.472;2022-12-17T08:52:01;12.25;10.75;6.75
76238;PMS7003;65043;48.392;-4.472;2022-12-17T08:54:45;10.25;10.00;7.00
76238;PMS7003;65043;48.392;-4.472;2022-12-17T08:57:28;19.00;11.00;8.25
76238;PMS7003;65043;48.392;-4.472;2022-12-17T09:00:13;14.75;10.75;8.00
76238;PMS7003;65043;48.392;-4.472;2022-12-17T09:03:00;14.50;14.00;10.00
76238;PMS7003;65043;48.392;-4.472;2022-12-17T09:05:45;16.75;11.75;9.00
76238;PMS7003;65043;48.392;-4.472;2022-12-17T09:08:29;11.50;9.00;6.75
76238;PMS7003;65043;48.392;-4.472;2022-12-17T09:11:14;14.25;11.25;7.25
76238;PMS7003;65043;48.392;-4.472;2022-12-17T09:13:58;11.75;11.75;7.25
76238;PMS7003;65043;48.392;-4.472;2022-12-17T09:16:42;16.50;10.75;9.00
76238;PMS7003;65043;48.392;-4.472;2022-12-17T09:19:26;13.25;10.50;6.75
76238;PMS7003;65043;48.392;-4.472;2022-12-17T09:22:10;11.50;10.00;7.50
76238;PMS7003;65043;48.392;-4.472;2022-12-17T09:24:54;9.50;8.75;6.00
76238;PMS7003;65043;48.392;-4.472;2022-12-17T09:27:38;12.00;11.00;7.00
76238;PMS7003;65043;48.392;-4.472;2022-12-17T09:30:22;11.00;11.00;6.00
76238;PMS7003;65043;48.392;-4.472;2022-12-17T09:33:06;12.25;10.50;8.75
76238;PMS7003;65043;48.392;-4.472;2022-12-17T09:35:49;15.00;11.25;6.75
76238;PMS7003;65043;48.392;-4.472;2022-12-17T09:38:33;9.75;9.50;6.00
76238;PMS7003;65043;48.392;-4.472;2022-12-17T09:41:28;10.00;10.00;7.00
76238;PMS7003;65043;48.392;-4.472;2022-12-17T09:44:23;12.50;11.75;8.25
76238;PMS7003;65043;48.392;-4.472;2022-12-17T09:50:24;8.75;7.25;6.00
76238;PMS7003;65043;48.392;-4.472;2022-12-17T09:53:11;9.00;9.00;5.75
76238;PMS7003;65043;48.392;-4.472;2022-12-17T09:56:03;13.25;11.00;7.00
76238;PMS7003;65043;48.392;-4.472;2022-12-17T09:58:46;9.50;9.50;6.00
76238;PMS7003;65043;48.392;-4.472;2022-12-17T10:01:31;8.25;4.50;2.50
76238;PMS7003;65043;48.392;-4.472;2022-12-17T10:04:19;7.50;7.00;3.00
76238;PMS7003;65043;48.392;-4.472;2022-12-17T10:07:08;10.25;10.25;6.25
76238;PMS7003;65043;48.392;-4.472;2022-12-17T10:09:56;9.50;9.50;6.00
76238;PMS7003;65043;48.392;-4.472;2022-12-17T10:12:44;11.00;9.50;5.00
76238;PMS7003;65043;48.392;-4.472;2022-12-17T10:15:28;12.50;10.00;6.00
76238;PMS7003;65043;48.392;-4.472;2022-12-17T10:18:12;5.75;5.75;3.50
76238;PMS7003;65043;48.392;-4.472;2022-12-17T10:21:00;9.25;7.50;5.25
76238;PMS7003;65043;48.392;-4.472;2022-12-17T10:23:48;7.25;7.00;5.25
76238;PMS7003;65043;48.392;-4.472;2022-12-17T10:26:32;7.00;7.00;5.00
76238;PMS7003;65043;48.392;-4.472;2022-12-17T10:29:37;7.00;6.00;5.00
76238;PMS7003;65043;48.392;-4.472;2022-12-17T10:32:23;5.75;5.75;3.00
76238;PMS7003;65043;48.392;-4.472;2022-12-17T10:44:18;9.50;8.75;6.25
76238;PMS7003;65043;48.392;-4.472;2022-12-17T10:47:12;9.75;9.50;6.00
76238;PMS7003;65043;48.392;-4.472;2022-12-17T10:49:59;10.00;10.00;6.00
76238;PMS7003;65043;48.392;-4.472;2022-12-17T10:52:46;9.50;6.50;5.00
76238;PMS7003;65043;48.392;-4.472;2022-12-17T10:55:31;11.75;7.50;5.75
76238;PMS7003;65043;48.392;-4.472;2022-12-17T10:58:22;7.50;6.00;5.00
76238;PMS7003;65043;48.392;-4.472;2022-12-17T11:01:17;6.00;5.00;4.00
76238;PMS7003;65043;48.392;-4.472;2022-12-17T11:04:16;10.75;7.75;5.00
76238;PMS7003;65043;48.392;-4.472;2022-12-17T11:07:25;7.25;5.75;5.00
76238;PMS7003;65043;48.392;-4.472;2022-12-17T11:10:21;11.50;8.25;5.50
76238;PMS7003;65043;48.392;-4.472;2022-12-17T11:13:14;7.00;6.00;5.50
76238;PMS7003;65043;48.392;-4.472;2022-12-17T11:16:23;6.75;6.75;4.00
76238;PMS7003;65043;48.392;-4.472;2022-12-17T11:22:05;10.75;9.50;6.00
76238;PMS7003;65043;48.392;-4.472;2022-12-17T11:25:17;7.00;6.00;5.00
76238;PMS7003;65043;48.392;-4.472;2022-12-17T11:28:14;6.50;6.00;5.00
76238;PMS7003;65043;48.392;-4.472;2022-12-17T11:31:19;10.25;9.25;5.00
76238;PMS7003;65043;48.392;-4.472;2022-12-17T11:34:41;11.50;8.00;6.00
76238;PMS7003;65043;48.392;-4.472;2022-12-17T11:47:13;8.25;7.50;5.00
76238;PMS7003;65043;48.392;-4.472;2022-12-17T11:59:44;9.00;6.75;4.50
76238;PMS7003;65043;48.392;-4.472;2022-12-17T12:05:30;9.75;7.00;5.00
76238;PMS7003;65043;48.392;-4.472;2022-12-17T12:08:34;6.00;6.00;4.00
76238;PMS7003;65043;48.392;-4.472;2022-12-17T12:14:34;10.00;7.75;6.25
76238;PMS7003;65043;48.392;-4.472;2022-12-17T12:30:02;6.00;6.00;4.25
76238;PMS7003;65043;48.392;-4.472;2022-12-17T12:35:52;8.50;6.75;4.25
76238;PMS7003;65043;48.392;-4.472;2022-12-17T12:38:53;8.00;4.00;3.00
76238;PMS7003;65043;48.392;-4.472;2022-12-17T12:41:43;7.00;7.00;3.25
76238;PMS7003;65043;48.392;-4.472;2022-12-17T12:51:22;5.75;5.75;3.75
76238;PMS7003;65043;48.392;-4.472;2022-12-17T12:57:27;9.00;6.50;3.00
76238;PMS7003;65043;48.392;-4.472;2022-12-17T13:09:51;7.25;7.00;5.75
76238;PMS7003;65043;48.392;-4.472;2022-12-17T13:17:05;11.75;11.50;7.50
76238;PMS7003;65043;48.392;-4.472;2022-12-17T13:24:49;8.75;8.25;4.00
76238;PMS7003;65043;48.392;-4.472;2022-12-17T13:30:10;15.50;12.50;8.75
76238;PMS7003;65043;48.392;-4.472;2022-12-17T13:35:39;12.00;7.00;4.50
76238;PMS7003;65043;48.392;-4.472;2022-12-17T13:43:26;12.00;10.25;7.25
76238;PMS7003;65043;48.392;-4.472;2022-12-17T13:45:56;19.00;15.25;10.50
76238;PMS7003;65043;48.392;-4.472;2022-12-17T13:48:22;15.50;13.50;8.25
76238;PMS7003;65043;48.392;-4.472;2022-12-17T13:53:24;14.00;12.00;7.50
76238;PMS7003;65043;48.392;-4.472;2022-12-17T13:55:51;11.25;11.00;6.50
76238;PMS7003;65043;48.392;-4.472;2022-12-17T13:58:19;10.25;8.50;7.00
76238;PMS7003;65043;48.392;-4.472;2022-12-17T14:00:46;12.25;9.00;7.00
76238;PMS7003;65043;48.392;-4.472;2022-12-17T14:03:11;13.75;12.00;8.00
76238;PMS7003;65043;48.392;-4.472;2022-12-17T14:05:38;14.50;10.25;7.00
76238;PMS7003;65043;48.392;-4.472;2022-12-17T14:08:07;16.75;14.00;9.00
76238;PMS7003;65043;48.392;-4.472;2022-12-17T14:10:36;25.50;19.50;12.00
76238;PMS7003;65043;48.392;-4.472;2022-12-17T14:13:06;17.75;14.75;9.50
76238;PMS7003;65043;48.392;-4.472;2022-12-17T14:15:34;16.00;12.25;8.25
76238;PMS7003;65043;48.392;-4.472;2022-12-17T14:18:00;14.25;11.75;9.00
76238;PMS7003;65043;48.392;-4.472;2022-12-17T14:20:31;12.00;12.00;9.00
76238;PMS7003;65043;48.392;-4.472;2022-12-17T14:23:41;16.50;13.00;9.00
76238;PMS7003;65043;48.392;-4.472;2022-12-17T14:25:52;13.75;12.75;8.00
76238;PMS7003;65043;48.392;-4.472;2022-12-17T14:31:06;12.00;11.50;8.25
76238;PMS7003;65043;48.392;-4.472;2022-12-17T14:33:42;13.00;13.00;9.25
76238;PMS7003;65043;48.392;-4.472;2022-12-17T14:36:08;20.50;14.25;9.00
76238;PMS7003;65043;48.392;-4.472;2022-12-17T14:41:22;11.25;11.25;8.00
76238;PMS7003;65043;48.392;-4.472;2022-12-17T14:44:41;16.50;14.00;8.00
76238;PMS7003;65043;48.392;-4.472;2022-12-17T14:47:27;12.25;11.25;8.00
76238;PMS7003;65043;48.392;-4.472;2022-12-17T14:52:44;11.50;11.00;7.00
76238;PMS7003;65043;48.392;-4.472;2022-12-17T14:55:25;12.75;12.75;8.00
76238;PMS7003;65043;48.392;-4.472;2022-12-17T15:00:52;21.50;15.50;11.50
76238;PMS7003;65043;48.392;-4.472;2022-12-17T15:03:30;15.75;14.25;11.00
76238;PMS7003;65043;48.392;-4.472;2022-12-17T15:06:01;17.50;14.75;11.00
76238;PMS7003;65043;48.392;-4.472;2022-12-17T15:08:30;20.25;16.00;11.00
76238;PMS7003;65043;48.392;-4.472;2022-12-17T15:10:58;20.75;16.00;11.00
76238;PMS7003;65043;48.392;-4.472;2022-12-17T15:13:23;20.75;15.50;11.00
76238;PMS7003;65043;48.392;-4.472;2022-12-17T15:15:49;14.75;11.75;8.25
76238;PMS7003;65043;48.392;-4.472;2022-12-17T15:18:14;17.75;17.00;11.00
76238;PMS7003;65043;48.392;-4.472;2022-12-17T15:20:39;18.50;17.00;12.50
76238;PMS7003;65043;48.392;-4.472;2022-12-17T15:23:08;16.50;14.75;10.00
76238;PMS7003;65043;48.392;-4.472;2022-12-17T15:25:37;14.25;13.00;9.25
76238;PMS7003;65043;48.392;-4.472;2022-12-17T15:28:03;15.00;12.50;10.50
76238;PMS7003;65043;48.392;-4.472;2022-12-17T15:30:28;18.25;14.50;11.75
76238;PMS7003;65043;48.392;-4.472;2022-12-17T15:32:54;37.50;28.25;14.00
76238;PMS7003;65043;48.392;-4.472;2022-12-17T15:35:19;33.50;22.50;14.25
76238;PMS7003;65043;48.392;-4.472;2022-12-17T15:37:44;25.00;19.75;12.00
76238;PMS7003;65043;48.392;-4.472;2022-12-17T15:40:10;21.00;17.00;11.25
76238;PMS7003;65043;48.392;-4.472;2022-12-17T15:42:36;20.50;16.25;9.25
76238;PMS7003;65043;48.392;-4.472;2022-12-17T15:45:20;21.25;18.00;13.25
76238;PMS7003;65043;48.392;-4.472;2022-12-17T15:47:45;16.25;14.75;11.00
76238;PMS7003;65043;48.392;-4.472;2022-12-17T15:50:11;15.75;14.25;9.75
76238;PMS7003;65043;48.392;-4.472;2022-12-17T15:52:36;20.00;14.75;10.50
76238;PMS7003;65043;48.392;-4.472;2022-12-17T15:55:01;20.75;14.25;11.00
76238;PMS7003;65043;48.392;-4.472;2022-12-17T15:57:27;15.25;13.75;11.00
76238;PMS7003;65043;48.392;-4.472;2022-12-17T15:59:52;17.50;16.50;11.25
76238;PMS7003;65043;48.392;-4.472;2022-12-17T16:02:18;18.75;15.00;11.25
76238;PMS7003;65043;48.392;-4.472;2022-12-17T16:04:43;17.75;16.75;10.75
76238;PMS7003;65043;48.392;-4.472;2022-12-17T16:07:08;21.50;17.75;11.50
76238;PMS7003;65043;48.392;-4.472;2022-12-17T16:09:34;25.75;18.75;12.75
76238;PMS7003;65043;48.392;-4.472;2022-12-17T16:11:59;17.75;15.50;12.00
76238;PMS7003;65043;48.392;-4.472;2022-12-17T16:14:25;22.00;17.75;13.00
76238;PMS7003;65043;48.392;-4.472;2022-12-17T16:16:51;19.25;17.25;12.00
76238;PMS7003;65043;48.392;-4.472;2022-12-17T16:19:16;20.75;16.00;12.00
76238;PMS7003;65043;48.392;-4.472;2022-12-17T16:21:42;16.75;14.75;12.75
76238;PMS7003;65043;48.392;-4.472;2022-12-17T16:24:08;22.25;18.75;12.25
76238;PMS7003;65043;48.392;-4.472;2022-12-17T16:26:34;26.75;19.75;15.25
76238;PMS7003;65043;48.392;-4.472;2022-12-17T16:29:00;25.75;23.00;16.00
76238;PMS7003;65043;48.392;-4.472;2022-12-17T16:31:25;22.00;21.00;12.75
76238;PMS7003;65043;48.392;-4.472;2022-12-17T16:33:51;24.00;18.00;12.50
76238;PMS7003;65043;48.392;-4.472;2022-12-17T16:36:17;21.75;19.00;13.00
76238;PMS7003;65043;48.392;-4.472;2022-12-17T16:38:45;24.00;18.75;12.50
76238;PMS7003;65043;48.392;-4.472;2022-12-17T16:41:13;18.50;16.00;11.00
76238;PMS7003;65043;48.392;-4.472;2022-12-17T16:43:39;14.25;13.00;10.50
76238;PMS7003;65043;48.392;-4.472;2022-12-17T16:46:05;16.00;13.50;10.75
76238;PMS7003;65043;48.392;-4.472;2022-12-17T16:48:46;20.00;16.50;12.50
76238;PMS7003;65043;48.392;-4.472;2022-12-17T16:51:16;20.75;18.25;12.75
76238;PMS7003;65043;48.392;-4.472;2022-12-17T16:53:43;16.25;16.25;12.75
76238;PMS7003;65043;48.392;-4.472;2022-12-17T16:56:15;19.25;16.00;11.50
76238;PMS7003;65043;48.392;-4.472;2022-12-17T16:58:51;18.00;15.50;12.00
76238;PMS7003;65043;48.392;-4.472;2022-12-17T17:01:25;15.50;12.00;10.00
76238;PMS7003;65043;48.392;-4.472;2022-12-17T17:03:52;23.75;19.75;13.00
76238;PMS7003;65043;48.392;-4.472;2022-12-17T17:06:18;23.00;19.75;13.00
76238;PMS7003;65043;48.392;-4.472;2022-12-17T17:08:44;22.25;19.25;15.00
76238;PMS7003;65043;48.392;-4.472;2022-12-17T17:13:39;24.50;18.25;13.50